Alorton, Illinois
Current Conditions -  °F | °C
As of 3:53 PM on Monday 20 Oct 2014 (Local Time) from KCPS Reporting Station
Clear Clear  
Wind Chill: 23°   Ceiling: Unl
Heat Index: 23°   Visibility: 10mi
Dew Point:   Wind: 15mph
Humidity: 34%   Direction: 310°NW
Pressure: 29.94"   Gusts: NA
Location:  38.5841°N, 90.126°W
Report Text: KCPS 202053Z 31013KT 10SM CLR 23/07 A2994 RMK AO2 SLP135 T02330067 55008
Loading
Personal Weather Stations






























Interactive Weather Map
Tropical Storm Tracking
New forecast layout! Learn more

10-Day Weather Forecast

Advertisements
Track Severe Weather on mobile